Time;durP1;ratioP1;P1;durP2;ratioP2;P2;SDS_P1;SDS_P2;PMS_P1;PMS_P2;Temp;Humidity;BMP_temperature;BMP_pressure;BME280_temperature;BME280_humidity;BME280_pressure;Samples;Min_cycle;Max_cycle;Signal;HPM_P1;HPM_P2
2023/09/30 00:00:01;;;;;;;16.10;5.88;;;;;;;15.82;82.41;100485.94;5075673;28;20044;-76
2023/09/30 00:02:28;;;;;;;11.85;5.28;;;;;;;15.82;82.82;100493.84;5079069;28;20048;-76
2023/09/30 00:04:55;;;;;;;15.75;5.85;;;;;;;15.84;82.55;100488.53;5072085;28;20062;-76
2023/09/30 00:07:22;;;;;;;12.90;5.50;;;;;;;15.84;82.68;100497.28;5077294;28;20055;-77
2023/09/30 00:09:51;;;;;;;10.68;5.28;;;;;;;15.85;82.81;100492.84;5076361;28;20071;-77
2023/09/30 00:12:18;;;;;;;11.68;5.32;;;;;;;15.85;82.81;100492.84;5081686;28;20040;-77
2023/09/30 00:14:45;;;;;;;14.38;6.40;;;;;;;15.85;83.03;100483.22;5077418;28;20054;-77
2023/09/30 00:17:12;;;;;;;9.80;5.22;;;;;;;15.84;82.98;100486.75;5078497;28;20420;-77
2023/09/30 00:19:39;;;;;;;11.35;5.63;;;;;;;15.87;83.03;100485.75;5079521;28;20042;-76
2023/09/30 00:22:06;;;;;;;14.77;5.78;;;;;;;15.87;82.93;100496.28;5076918;28;20058;-77
2023/09/30 00:24:33;;;;;;;10.05;5.10;;;;;;;15.86;83.06;100490.16;5081280;28;20734;-77
2023/09/30 00:27:02;;;;;;;9.73;5.18;;;;;;;15.87;83.20;100486.59;5086495;28;20044;-77
2023/09/30 00:29:29;;;;;;;8.35;4.88;;;;;;;15.89;83.14;100491.81;5082388;28;20090;-77
2023/09/30 00:31:56;;;;;;;10.65;6.68;;;;;;;15.89;83.18;100495.31;5081407;28;20037;-78
2023/09/30 00:34:22;;;;;;;7.68;4.35;;;;;;;15.90;83.30;100491.72;5079713;28;20067;-78
2023/09/30 00:36:49;;;;;;;9.05;4.75;;;;;;;15.90;83.32;100489.09;5084558;28;20040;-77
2023/09/30 00:39:16;;;;;;;6.88;4.38;;;;;;;15.90;83.51;100489.09;5082492;28;20040;-77
2023/09/30 00:41:43;;;;;;;8.70;4.88;;;;;;;15.92;83.46;100484.63;5080231;28;20402;-77
2023/09/30 00:44:11;;;;;;;5.85;4.18;;;;;;;15.92;83.30;100489.91;5079788;28;20044;-78
2023/09/30 00:46:41;;;;;;;8.55;4.45;;;;;;;15.89;83.61;100486.56;5079521;28;20134;-78
2023/09/30 00:49:10;;;;;;;5.88;4.70;;;;;;;15.93;83.64;100486.31;5085431;28;20801;-78
2023/09/30 00:51:37;;;;;;;6.35;3.97;;;;;;;15.93;83.54;100481.06;5075625;28;20052;-77
2023/09/30 00:54:05;;;;;;;6.18;3.72;;;;;;;15.94;83.48;100489.84;5075921;28;20041;-78
2023/09/30 00:56:34;;;;;;;5.05;3.38;;;;;;;15.93;83.37;100480.19;5080987;28;20055;-78
2023/09/30 00:59:02;;;;;;;3.80;3.00;;;;;;;15.93;83.67;100474.94;5084148;28;20048;-78
2023/09/30 01:01:30;;;;;;;5.53;3.63;;;;;;;15.96;83.63;100483.53;5082790;28;20075;-78
2023/09/30 01:03:58;;;;;;;4.35;3.03;;;;;;;15.95;83.82;100479.22;5081826;28;20040;-78
2023/09/30 01:06:25;;;;;;;6.32;2.97;;;;;;;15.98;83.62;100491.38;5069237;28;20055;-78
2023/09/30 01:08:53;;;;;;;9.25;3.53;;;;;;;15.99;83.71;100495.72;5083541;28;20084;-78
2023/09/30 01:11:21;;;;;;;8.80;3.42;;;;;;;15.99;83.82;100495.72;5082738;28;20390;-78
2023/09/30 01:13:49;;;;;;;3.65;2.58;;;;;;;15.99;83.80;100494.88;5080181;28;20061;-78
2023/09/30 01:16:16;;;;;;;7.45;3.33;;;;;;;15.98;83.62;100498.44;5082030;28;20745;-82
2023/09/30 01:18:44;;;;;;;2.75;2.53;;;;;;;15.99;84.08;100490.47;5088103;28;20052;-82
2023/09/30 01:21:12;;;;;;;3.90;2.35;;;;;;;15.92;83.77;100470.59;5082823;28;20413;-82
2023/09/30 01:23:40;;;;;;;5.57;2.38;;;;;;;15.98;83.86;100485.28;5081967;28;20491;-82
2023/09/30 01:26:10;;;;;;;4.85;2.88;;;;;;;16.02;83.65;100497.38;5081539;28;20044;-83
2023/09/30 01:28:37;;;;;;;6.80;2.65;;;;;;;15.90;83.77;100473.28;5081693;28;20135;-82
2023/09/30 01:31:04;;;;;;;2.65;2.20;;;;;;;15.98;83.76;100486.13;5080973;28;20052;-82
2023/09/30 01:33:31;;;;;;;5.50;2.10;;;;;;;16.02;83.85;100489.47;5087885;28;20040;-82
2023/09/30 01:35:59;;;;;;;4.75;1.40;;;;;;;16.01;83.68;100493.88;5082768;28;20051;-83
2023/09/30 01:38:26;;;;;;;2.28;1.58;;;;;;;15.92;83.61;100484.63;5082569;28;20135;-83
2023/09/30 01:40:55;;;;;;;3.13;1.10;;;;;;;16.02;83.52;100500.00;5072923;28;20511;-84
2023/09/30 01:43:22;;;;;;;5.68;1.05;;;;;;;16.02;83.36;100494.72;5084043;28;20534;-83
2023/09/30 01:45:48;;;;;;;3.50;0.98;;;;;;;16.01;83.59;100487.78;5078714;28;20131;-83
2023/09/30 01:48:15;;;;;;;8.75;1.35;;;;;;;15.86;83.54;100474.38;5081013;28;20048;-83
2023/09/30 01:50:42;;;;;;;3.88;0.60;;;;;;;16.01;83.29;100508.84;5080409;28;20135;-83
2023/09/30 01:53:09;;;;;;;2.53;0.60;;;;;;;16.01;83.00;100506.22;5079859;28;20044;-83
2023/09/30 01:55:36;;;;;;;2.75;0.50;;;;;;;15.99;83.11;100506.25;5081895;28;20044;-83
2023/09/30 01:58:05;;;;;;;1.15;0.40;;;;;;;15.98;82.84;100503.72;5085446;28;20072;-82
2023/09/30 02:00:32;;;;;;;0.93;0.40;;;;;;;15.99;82.83;100510.69;5080692;28;20568;-83
2023/09/30 02:02:59;;;;;;;1.42;0.60;;;;;;;15.98;82.91;100509.84;5078376;28;20052;-84
2023/09/30 02:05:26;;;;;;;1.02;0.30;;;;;;;15.90;82.68;100504.06;5076865;28;20110;-82
2023/09/30 02:07:53;;;;;;;2.45;0.30;;;;;;;15.80;82.76;100490.44;5078444;28;20037;-83
2023/09/30 02:10:21;;;;;;;1.17;0.38;;;;;;;15.89;82.56;100511.09;5084229;28;20044;-83
2023/09/30 02:12:48;;;;;;;0.30;0.20;;;;;;;15.92;82.43;100510.13;5079644;28;20122;-83
2023/09/30 02:15:16;;;;;;;1.25;0.40;;;;;;;15.85;82.23;100509.53;5083198;28;20750;-84
2023/09/30 02:17:45;;;;;;;1.17;0.30;;;;;;;15.89;82.17;100526.91;5079702;28;20066;-80
2023/09/30 02:20:15;;;;;;;3.25;0.40;;;;;;;15.81;81.75;100507.09;5083827;28;20047;-80
2023/09/30 02:22:43;;;;;;;0.90;0.38;;;;;;;15.83;81.61;100521.91;5082521;28;20126;-79
2023/09/30 02:25:12;;;;;;;0.50;0.32;;;;;;;15.80;81.28;100519.41;5081955;28;20040;-80
2023/09/30 02:27:39;;;;;;;1.77;0.55;;;;;;;15.78;81.03;100530.94;5070807;28;20113;-75
2023/09/30 02:30:08;;;;;;;2.03;0.40;;;;;;;15.75;80.71;100529.28;5077096;28;20132;-75
2023/09/30 02:32:36;;;;;;;2.25;0.50;;;;;;;15.67;80.52;100532.22;5074724;28;20128;-75
2023/09/30 02:35:04;;;;;;;3.17;0.50;;;;;;;15.67;80.44;100534.00;5072495;28;20612;-75
2023/09/30 02:37:35;;;;;;;3.05;1.00;;;;;;;15.66;79.99;100535.78;5074080;28;20048;-75
2023/09/30 02:40:03;;;;;;;3.58;0.50;;;;;;;15.62;79.66;100541.25;5076840;28;20135;-75
2023/09/30 02:42:30;;;;;;;2.58;0.55;;;;;;;15.59;79.76;100541.38;5074652;28;20516;-75
2023/09/30 02:44:57;;;;;;;2.40;0.52;;;;;;;15.53;79.54;100539.84;5076659;28;20048;-76
2023/09/30 02:47:24;;;;;;;4.65;1.00;;;;;;;15.46;79.28;100539.28;5074717;28;20678;-75
2023/09/30 02:49:52;;;;;;;5.32;0.63;;;;;;;15.46;78.98;100551.59;5074295;28;20041;-75
2023/09/30 02:52:19;;;;;;;5.57;0.60;;;;;;;15.43;78.99;100556.97;5072028;28;20057;-76
2023/09/30 02:54:46;;;;;;;5.15;0.80;;;;;;;15.39;78.74;100560.66;5070167;28;20694;-75
2023/09/30 02:57:13;;;;;;;1.60;0.45;;;;;;;15.34;78.74;100545.06;5071437;28;20048;-75
2023/09/30 02:59:40;;;;;;;2.42;0.60;;;;;;;15.31;78.52;100550.44;5069971;28;20944;-76
2023/09/30 03:02:07;;;;;;;4.10;0.60;;;;;;;15.17;78.53;100537.00;5073119;28;20503;-75
2023/09/30 03:04:34;;;;;;;5.28;0.88;;;;;;;15.19;78.43;100548.31;5070407;28;20501;-75
2023/09/30 03:07:03;;;;;;;2.90;0.63;;;;;;;15.14;78.46;100551.16;5074706;28;20052;-75
2023/09/30 03:09:30;;;;;;;1.40;0.40;;;;;;;15.14;78.24;100558.16;5074529;28;20067;-75
2023/09/30 03:11:58;;;;;;;5.85;0.82;;;;;;;15.10;78.22;100561.84;5078712;28;20041;-75
2023/09/30 03:14:25;;;;;;;3.75;0.60;;;;;;;15.07;78.34;100558.41;5067643;28;21680;-74
2023/09/30 03:16:52;;;;;;;3.10;0.60;;;;;;;14.96;78.27;100547.47;5074893;28;20048;-75
2023/09/30 03:19:19;;;;;;;2.65;0.73;;;;;;;15.01;78.29;100573.59;5074971;28;20054;-75
2023/09/30 03:21:46;;;;;;;6.20;1.27;;;;;;;14.95;78.26;100568.59;5075399;28;20076;-73
2023/09/30 03:24:15;;;;;;;3.28;0.70;;;;;;;14.94;78.11;100569.50;5069558;28;20124;-75
2023/09/30 03:26:42;;;;;;;6.32;1.10;;;;;;;14.93;78.30;100565.16;5076546;28;20558;-74
2023/09/30 03:29:09;;;;;;;4.22;0.60;;;;;;;14.88;78.17;100570.59;5069186;28;20063;-74
2023/09/30 03:31:36;;;;;;;1.95;0.50;;;;;;;14.82;78.67;100558.53;5073815;28;20415;-73
2023/09/30 03:34:04;;;;;;;9.05;1.67;;;;;;;14.80;78.42;100554.28;5069959;28;20048;-75
2023/09/30 03:36:31;;;;;;;4.50;0.60;;;;;;;14.79;78.59;100565.69;5072640;28;20056;-78
2023/09/30 03:39:05;;;;;;;2.97;1.10;;;;;;;14.77;78.78;100567.53;5076856;28;20130;-78
2023/09/30 03:41:35;;;;;;;6.18;0.52;;;;;;;14.75;78.80;100569.38;5080392;28;20056;-79
2023/09/30 03:44:02;;;;;;;5.80;0.50;;;;;;;14.73;78.82;100564.16;5077296;28;20036;-79
2023/09/30 03:46:29;;;;;;;5.68;0.70;;;;;;;14.70;78.94;100566.91;5085935;28;20052;-79
2023/09/30 03:48:56;;;;;;;5.07;0.75;;;;;;;14.70;78.87;100569.53;5076821;28;20068;-78
2023/09/30 03:51:25;;;;;;;2.83;0.52;;;;;;;14.68;78.89;100565.25;5085410;28;20054;-79
2023/09/30 03:53:52;;;;;;;3.60;0.60;;;;;;;14.64;79.07;100568.94;5074059;28;20056;-79
2023/09/30 03:56:22;;;;;;;3.92;0.85;;;;;;;14.64;79.15;100582.09;5080285;28;20048;-80
2023/09/30 03:58:51;;;;;;;6.65;0.90;;;;;;;14.64;79.16;100579.44;5090241;28;20056;-79
2023/09/30 04:01:19;;;;;;;5.03;0.88;;;;;;;14.52;79.09;100563.22;5080571;28;20048;-78
2023/09/30 04:03:46;;;;;;;3.70;1.05;;;;;;;14.62;79.21;100590.88;5091897;28;20051;-80
2023/09/30 04:06:13;;;;;;;5.07;0.63;;;;;;;14.61;79.27;100585.69;5081113;28;20041;-79
2023/09/30 04:08:40;;;;;;;6.65;0.77;;;;;;;14.60;79.07;100589.25;5089629;28;20054;-78
2023/09/30 04:11:07;;;;;;;5.38;0.90;;;;;;;14.56;79.06;100583.22;5079693;28;20040;-78
2023/09/30 04:13:34;;;;;;;8.38;1.13;;;;;;;14.57;79.12;100584.94;5090493;28;20040;-79
2023/09/30 04:16:03;;;;;;;9.88;1.20;;;;;;;14.55;79.31;100592.03;5078897;28;20044;-79
2023/09/30 04:18:30;;;;;;;3.97;1.48;;;;;;;14.54;79.13;100590.31;5078919;28;20048;-78
2023/09/30 04:20:57;;;;;;;5.20;1.48;;;;;;;14.53;79.18;100588.59;5082043;28;20040;-81
2023/09/30 04:23:23;;;;;;;8.75;2.35;;;;;;;14.52;79.04;100592.16;5091135;28;20050;-79
2023/09/30 04:25:50;;;;;;;6.28;0.80;;;;;;;14.50;78.86;100593.94;5083668;28;20037;-80
2023/09/30 04:28:20;;;;;;;8.55;0.85;;;;;;;14.49;78.94;100594.88;5083748;28;20408;-79
2023/09/30 04:30:48;;;;;;;4.00;0.77;;;;;;;14.45;78.80;100595.88;5090103;28;20126;-79
2023/09/30 04:33:18;;;;;;;8.95;1.40;;;;;;;14.41;78.63;100596.91;5088233;28;20040;-79
2023/09/30 04:35:45;;;;;;;7.22;1.15;;;;;;;14.45;78.59;100605.53;5087109;28;20101;-78
2023/09/30 04:38:13;;;;;;;4.78;1.10;;;;;;;14.43;78.55;100608.22;5089939;28;20066;-79
2023/09/30 04:40:40;;;;;;;9.18;2.30;;;;;;;14.41;78.54;100602.16;5087686;28;20035;-80
2023/09/30 04:43:06;;;;;;;6.45;1.15;;;;;;;14.39;78.47;100601.34;5083592;28;20075;-80
2023/09/30 04:45:33;;;;;;;12.57;3.30;;;;;;;14.36;78.21;100604.97;5085665;28;20506;-80
2023/09/30 04:48:01;;;;;;;5.70;1.33;;;;;;;14.29;77.97;100600.84;5083480;28;20059;-74
2023/09/30 04:50:30;;;;;;;8.02;1.40;;;;;;;14.33;78.20;100614.72;5074760;28;20044;-75
2023/09/30 04:52:58;;;;;;;12.65;1.77;;;;;;;14.31;78.07;100619.19;5078410;28;20051;-75
2023/09/30 04:55:26;;;;;;;8.55;1.52;;;;;;;14.29;78.19;100615.78;5072305;28;20044;-74
2023/09/30 04:57:53;;;;;;;6.30;0.90;;;;;;;14.27;78.13;100620.22;5078992;28;20048;-74
2023/09/30 05:00:24;;;;;;;9.80;1.55;;;;;;;14.24;77.94;100608.03;5081255;28;20055;-75
2023/09/30 05:02:53;;;;;;;8.50;0.90;;;;;;;14.23;77.88;100610.72;5071436;28;20049;-76
2023/09/30 05:05:20;;;;;;;8.40;1.60;;;;;;;14.21;77.92;100615.19;5076988;28;20485;-74
2023/09/30 05:07:49;;;;;;;6.68;1.20;;;;;;;14.19;77.73;100615.22;5077045;28;20044;-74
2023/09/30 05:10:17;;;;;;;7.80;1.20;;;;;;;14.16;77.70;100621.44;5076926;28;20050;-75
2023/09/30 05:12:45;;;;;;;7.72;1.33;;;;;;;13.97;77.63;100594.13;5071162;28;20599;-74
2023/09/30 05:15:15;;;;;;;8.85;1.27;;;;;;;14.12;77.54;100614.59;5081509;28;20105;-74
2023/09/30 05:17:43;;;;;;;7.32;1.38;;;;;;;14.10;77.71;100621.66;5077851;28;20052;-74
2023/09/30 05:20:12;;;;;;;8.50;1.30;;;;;;;14.03;77.58;100612.31;5078500;28;20127;-75
2023/09/30 05:22:40;;;;;;;9.70;1.08;;;;;;;14.04;77.60;100621.88;5070010;28;20775;-73
2023/09/30 05:25:09;;;;;;;6.85;1.42;;;;;;;14.03;77.50;100619.31;5077017;28;20043;-74
2023/09/30 05:27:36;;;;;;;8.30;1.30;;;;;;;13.98;77.51;100616.84;5075440;28;20052;-74
2023/09/30 05:30:03;;;;;;;9.80;1.85;;;;;;;13.97;77.39;100620.38;5074936;28;20139;-74
2023/09/30 05:32:30;;;;;;;4.40;1.73;;;;;;;13.95;77.42;100616.97;5074132;28;20085;-75
2023/09/30 05:34:57;;;;;;;9.88;2.20;;;;;;;13.89;77.29;100627.69;5076204;28;20102;-76
2023/09/30 05:37:26;;;;;;;9.68;1.55;;;;;;;13.91;77.37;100628.47;5075093;28;20048;-74
2023/09/30 05:39:53;;;;;;;10.00;1.77;;;;;;;13.88;77.41;100631.19;5079158;28;20055;-74
2023/09/30 05:42:22;;;;;;;13.07;1.63;;;;;;;13.86;77.44;100639.16;5076155;28;20051;-75
2023/09/30 05:44:48;;;;;;;11.15;1.50;;;;;;;13.83;77.48;100634.00;5075050;28;20504;-74
2023/09/30 05:47:16;;;;;;;9.57;1.17;;;;;;;13.83;77.54;100641.00;5077480;28;20040;-74
2023/09/30 05:49:43;;;;;;;8.05;1.60;;;;;;;13.82;77.76;100642.78;5077947;28;20066;-75
2023/09/30 05:52:10;;;;;;;14.30;1.15;;;;;;;13.82;77.65;100641.91;5069472;28;20516;-75
2023/09/30 05:54:37;;;;;;;8.70;2.05;;;;;;;13.80;77.68;100643.72;5077334;28;20048;-75
2023/09/30 05:57:04;;;;;;;7.65;1.38;;;;;;;13.80;77.55;100649.84;5074678;28;20044;-78
2023/09/30 05:59:32;;;;;;;10.02;1.48;;;;;;;13.77;77.68;100651.72;5082308;28;20050;-78
2023/09/30 06:01:59;;;;;;;10.00;2.42;;;;;;;13.79;77.55;100657.78;5079998;28;20089;-79
2023/09/30 06:04:26;;;;;;;8.05;1.63;;;;;;;13.78;77.71;100664.81;5084690;28;20501;-78
2023/09/30 06:06:53;;;;;;;7.85;0.93;;;;;;;13.77;77.54;100670.09;5079899;28;20398;-79
2023/09/30 06:09:20;;;;;;;10.52;1.40;;;;;;;13.75;77.56;100661.44;5073768;28;20048;-79
2023/09/30 06:11:47;;;;;;;9.82;1.45;;;;;;;13.78;77.75;100661.31;5081106;28;20051;-79
2023/09/30 06:14:14;;;;;;;6.00;0.73;;;;;;;13.77;77.84;100665.69;5082424;28;20039;-79
2023/09/30 06:16:42;;;;;;;14.00;2.50;;;;;;;13.78;77.74;100661.31;5082071;28;20044;-78
2023/09/30 06:19:09;;;;;;;13.68;2.05;;;;;;;13.79;77.85;100665.66;5080439;28;20485;-78
2023/09/30 06:21:44;;;;;;;13.05;1.63;;;;;;;13.77;78.06;100660.44;5077810;28;20041;-79
2023/09/30 06:24:11;;;;;;;9.32;1.50;;;;;;;13.80;77.80;100659.47;5074912;28;20066;-77
2023/09/30 06:26:39;;;;;;;5.90;0.90;;;;;;;13.79;77.93;100663.88;5075114;28;20078;-76
2023/09/30 06:29:06;;;;;;;8.95;1.00;;;;;;;13.80;77.92;100656.84;5080927;28;20055;-77
2023/09/30 06:31:33;;;;;;;9.40;0.90;;;;;;;13.80;77.88;100662.97;5085594;28;20044;-78
2023/09/30 06:34:02;;;;;;;9.88;1.00;;;;;;;13.79;77.95;100653.38;5076989;28;20048;-77
2023/09/30 06:36:29;;;;;;;20.42;1.90;;;;;;;13.81;78.07;100661.22;5079128;28;20531;-78
2023/09/30 06:38:56;;;;;;;8.98;1.65;;;;;;;13.81;77.86;100659.44;5079830;28;20476;-79
2023/09/30 06:41:23;;;;;;;12.15;1.88;;;;;;;13.82;77.95;100663.78;5076950;28;20044;-77
2023/09/30 06:43:51;;;;;;;18.83;1.35;;;;;;;13.80;77.80;100652.47;5080036;28;20047;-77
2023/09/30 06:46:18;;;;;;;11.90;1.77;;;;;;;13.84;78.03;100663.75;5081791;28;20047;-78
2023/09/30 06:48:45;;;;;;;10.25;1.15;;;;;;;13.85;78.12;100662.81;5079925;28;20056;-78
2023/09/30 06:51:17;;;;;;;11.20;0.82;;;;;;;13.86;78.00;100656.66;5082025;28;20050;-78
2023/09/30 06:53:44;;;;;;;7.25;0.93;;;;;;;13.86;78.05;100657.53;5072069;28;20077;-78
2023/09/30 06:56:10;;;;;;;8.48;1.10;;;;;;;13.86;78.07;100644.41;5079293;28;20040;-81
2023/09/30 06:58:37;;;;;;;11.35;0.93;;;;;;;13.88;78.23;100645.19;5065654;28;20055;-80
2023/09/30 07:01:04;;;;;;;6.78;1.08;;;;;;;13.90;78.30;100650.41;5082133;28;20036;-81
2023/09/30 07:03:32;;;;;;;8.93;1.00;;;;;;;13.90;78.20;100645.16;5086403;28;20054;-80
2023/09/30 07:06:00;;;;;;;10.93;1.33;;;;;;;13.94;78.25;100652.88;5085978;28;20051;-77
2023/09/30 07:08:29;;;;;;;10.98;0.80;;;;;;;13.94;78.39;100646.75;5082729;28;20131;-80
2023/09/30 07:10:57;;;;;;;10.70;1.00;;;;;;;13.98;78.19;100650.16;5086480;28;20047;-80
2023/09/30 07:13:24;;;;;;;14.85;1.30;;;;;;;14.00;78.47;100645.69;5087171;28;20101;-81
2023/09/30 07:15:51;;;;;;;11.18;1.23;;;;;;;14.02;78.41;100643.84;5078496;28;20744;-82
2023/09/30 07:18:18;;;;;;;7.32;0.75;;;;;;;14.04;78.27;100644.69;5081413;28;20420;-80
2023/09/30 07:20:45;;;;;;;9.23;1.15;;;;;;;14.07;78.11;100640.16;5082103;28;20067;-81
2023/09/30 07:23:13;;;;;;;6.72;1.00;;;;;;;14.07;78.17;100637.53;5082836;28;20124;-80
2023/09/30 07:25:42;;;;;;;12.88;1.60;;;;;;;14.12;78.14;100640.88;5080205;28;20094;-81
2023/09/30 07:28:11;;;;;;;14.52;0.98;;;;;;;14.15;78.20;100651.25;5080331;28;20050;-81
2023/09/30 07:30:38;;;;;;;11.00;1.25;;;;;;;14.17;78.06;100649.44;5082414;28;20053;-80
2023/09/30 07:33:06;;;;;;;11.60;0.70;;;;;;;14.11;78.15;100626.00;5082396;28;20108;-80
2023/09/30 07:35:35;;;;;;;7.03;0.70;;;;;;;14.25;77.99;100640.41;5083442;28;20074;-81
2023/09/30 07:38:02;;;;;;;11.40;1.27;;;;;;;14.21;77.96;100636.19;5083174;28;20051;-82
2023/09/30 07:40:29;;;;;;;12.10;0.95;;;;;;;14.30;77.69;100639.34;5084470;28;20079;-81
2023/09/30 07:42:57;;;;;;;12.23;1.25;;;;;;;14.35;77.79;100645.28;5085321;28;20044;-80
2023/09/30 07:45:24;;;;;;;11.20;0.80;;;;;;;14.36;77.66;100644.38;5079530;28;20465;-81
2023/09/30 07:47:52;;;;;;;12.52;1.10;;;;;;;14.42;77.70;100645.91;5079575;28;20052;-79
2023/09/30 07:50:18;;;;;;;12.30;2.03;;;;;;;14.42;77.28;100645.06;5074704;28;20065;-80
2023/09/30 07:52:45;;;;;;;11.30;0.60;;;;;;;14.48;77.27;100650.09;5079391;28;20497;-80
2023/09/30 07:55:12;;;;;;;8.30;0.90;;;;;;;14.50;77.13;100648.28;5071404;28;20055;-79
2023/09/30 07:57:42;;;;;;;8.43;0.60;;;;;;;14.53;77.14;100641.16;5085646;28;20052;-81
2023/09/30 08:00:14;;;;;;;10.73;1.60;;;;;;;14.57;76.64;100648.03;5077889;28;20040;-81
2023/09/30 08:02:42;;;;;;;18.08;1.25;;;;;;;14.62;76.92;100645.22;5081170;28;20044;-81
2023/09/30 08:05:12;;;;;;;13.68;1.02;;;;;;;14.62;76.92;100643.44;5082257;28;20533;-81
2023/09/30 08:07:39;;;;;;;11.75;1.48;;;;;;;14.68;77.00;100644.97;5075824;28;20075;-78
2023/09/30 08:10:12;;;;;;;10.75;0.93;;;;;;;14.73;76.69;100644.81;5075187;28;20124;-80
2023/09/30 08:12:39;;;;;;;13.23;1.00;;;;;;;14.76;76.45;100645.56;5076634;28;20035;-77
2023/09/30 08:15:11;;;;;;;11.70;1.85;;;;;;;14.81;76.04;100648.03;5076735;28;20057;-77
2023/09/30 08:17:39;;;;;;;9.82;0.70;;;;;;;14.84;76.09;100630.34;5065568;28;20433;-75
2023/09/30 08:20:08;;;;;;;15.13;0.95;;;;;;;14.87;75.80;100632.00;5069868;28;20048;-74
2023/09/30 08:22:35;;;;;;;7.95;0.70;;;;;;;14.90;75.86;100633.66;5063388;28;20124;-74
2023/09/30 08:25:02;;;;;;;8.98;0.80;;;;;;;14.95;76.12;100632.56;5071878;28;20051;-73
2023/09/30 08:27:29;;;;;;;9.75;1.02;;;;;;;14.99;75.45;100634.16;5066235;28;20048;-74
2023/09/30 08:29:55;;;;;;;5.38;0.60;;;;;;;15.03;75.61;100648.91;5073526;28;20058;-72
2023/09/30 08:32:22;;;;;;;9.43;1.50;;;;;;;15.06;75.25;100642.69;5068555;28;20044;-75
2023/09/30 08:34:51;;;;;;;15.20;1.58;;;;;;;15.10;75.15;100643.41;5073981;28;20044;-74
2023/09/30 08:37:18;;;;;;;11.00;0.63;;;;;;;15.12;74.90;100626.66;5070230;28;21180;-73
2023/09/30 08:39:45;;;;;;;10.85;0.93;;;;;;;15.10;74.82;100622.38;5072053;28;20068;-73
2023/09/30 08:42:12;;;;;;;11.18;0.70;;;;;;;15.17;74.63;100636.97;5065872;28;20132;-72
2023/09/30 08:44:40;;;;;;;8.75;0.80;;;;;;;15.19;74.31;100636.00;5075673;28;20045;-73
2023/09/30 08:47:08;;;;;;;7.68;0.73;;;;;;;15.20;74.33;100623.72;5070623;28;20044;-73
2023/09/30 08:49:39;;;;;;;12.38;0.90;;;;;;;15.21;74.22;100628.06;5073711;28;20738;-72
2023/09/30 08:52:08;;;;;;;7.82;0.50;;;;;;;15.24;73.78;100625.31;5070999;28;20468;-73
2023/09/30 08:54:34;;;;;;;13.77;1.90;;;;;;;15.30;73.72;100643.47;5078930;28;20416;-73
2023/09/30 08:57:04;;;;;;;13.63;2.45;;;;;;;15.32;73.72;100651.31;5074925;28;20048;-73
2023/09/30 08:59:32;;;;;;;8.65;0.80;;;;;;;15.34;73.57;100637.19;5073853;28;20073;-72
2023/09/30 09:02:00;;;;;;;16.92;2.08;;;;;;;15.35;73.36;100627.50;5080895;28;20052;-73
2023/09/30 09:04:27;;;;;;;14.70;1.35;;;;;;;15.36;73.24;100637.94;5070815;28;20119;-73
2023/09/30 09:06:55;;;;;;;16.95;1.15;;;;;;;15.41;72.89;100636.00;5076862;28;20045;-72
2023/09/30 09:09:23;;;;;;;5.97;0.90;;;;;;;15.41;72.64;100637.78;5068797;28;20051;-73
2023/09/30 09:11:51;;;;;;;10.38;1.45;;;;;;;15.44;72.58;100635.03;5077597;28;20036;-72
2023/09/30 09:14:18;;;;;;;12.23;1.08;;;;;;;15.48;72.50;100639.22;5075713;28;20048;-73
2023/09/30 09:16:55;;;;;;;11.02;1.00;;;;;;;15.51;72.46;100636.47;5079228;28;20048;-79
2023/09/30 09:19:22;;;;;;;15.40;1.05;;;;;;;15.52;72.21;100638.19;5081505;28;20044;-80
2023/09/30 09:21:57;;;;;;;6.70;0.90;;;;;;;15.54;71.74;100646.91;5085678;28;20043;-78
2023/09/30 09:24:33;;;;;;;11.57;1.25;;;;;;;15.56;71.77;100647.66;5074861;28;20060;-78
2023/09/30 09:27:07;;;;;;;6.03;1.00;;;;;;;15.57;71.55;100645.88;5079879;28;20425;-78
2023/09/30 09:29:35;;;;;;;12.90;1.37;;;;;;;15.58;71.30;100642.34;5071531;28;20136;-76
2023/09/30 09:32:09;;;;;;;13.55;0.82;;;;;;;15.58;71.42;100637.94;5071888;28;20167;-75
2023/09/30 09:34:37;;;;;;;16.33;2.03;;;;;;;15.60;71.53;100645.78;5076183;28;20040;-76
2023/09/30 09:37:17;;;;;;;14.35;0.80;;;;;;;15.62;71.19;100641.28;5076329;28;21087;-77
2023/09/30 09:39:53;;;;;;;16.13;1.92;;;;;;;15.65;71.20;100649.06;5075840;28;20060;-76
2023/09/30 09:42:27;;;;;;;10.25;0.93;;;;;;;15.66;71.32;100646.38;5070452;28;20044;-76
2023/09/30 09:44:57;;;;;;;15.75;0.90;;;;;;;15.68;71.40;100639.31;5077396;28;20047;-76
2023/09/30 09:47:25;;;;;;;10.02;0.80;;;;;;;15.71;71.29;100638.34;5075856;28;20151;-77
2023/09/30 09:49:54;;;;;;;9.63;0.77;;;;;;;15.71;71.12;100638.34;5078251;28;20859;-76
2023/09/30 09:52:22;;;;;;;14.38;1.25;;;;;;;15.72;71.06;100632.13;5075578;28;20520;-76
2023/09/30 09:54:51;;;;;;;7.78;0.70;;;;;;;15.77;70.84;100640.72;5073614;28;20044;-76
2023/09/30 09:57:19;;;;;;;12.82;1.98;;;;;;;15.79;70.03;100644.09;5073896;28;20051;-76
2023/09/30 09:59:48;;;;;;;9.25;0.60;;;;;;;15.82;70.47;100643.97;5074243;28;20497;-76
2023/09/30 10:02:16;;;;;;;8.15;0.80;;;;;;;15.81;70.33;100641.44;5076581;28;20048;-76
2023/09/30 10:04:44;;;;;;;9.38;0.80;;;;;;;15.86;70.49;100637.69;5072598;28;20098;-76
2023/09/30 10:07:15;;;;;;;10.57;1.08;;;;;;;15.90;70.53;100644.50;5078960;28;20371;-76
2023/09/30 10:09:47;;;;;;;12.20;1.10;;;;;;;15.93;70.83;100633.84;5070672;28;20041;-76
2023/09/30 10:12:16;;;;;;;13.95;0.90;;;;;;;15.97;70.73;100626.69;5076003;28;20109;-76
2023/09/30 10:14:44;;;;;;;9.40;0.70;;;;;;;15.98;70.05;100619.63;5078745;28;20059;-76
2023/09/30 10:17:11;;;;;;;10.73;1.17;;;;;;;16.05;70.06;100636.88;5075082;28;20059;-77
2023/09/30 10:20:06;;;;;;;6.35;0.47;;;;;;;16.10;70.26;100640.16;5072980;28;20109;-76
2023/09/30 10:22:33;;;;;;;14.05;1.00;;;;;;;16.12;70.48;100648.88;5075354;28;20048;-77
2023/09/30 10:25:01;;;;;;;6.50;0.85;;;;;;;16.15;69.39;100638.19;5074840;28;20489;-76
2023/09/30 10:27:39;;;;;;;10.18;1.15;;;;;;;16.19;69.18;100645.03;5076096;28;20056;-79
2023/09/30 10:30:13;;;;;;;8.15;0.82;;;;;;;16.19;69.25;100638.00;5063421;28;20052;-80
2023/09/30 10:33:14;;;;;;;6.70;1.00;;;;;;;16.23;68.83;100646.63;5061921;28;21385;-79
2023/09/30 10:35:47;;;;;;;7.78;0.60;;;;;;;16.23;68.04;100651.91;5059209;28;20466;-80
2023/09/30 10:38:42;;;;;;;5.80;0.60;;;;;;;16.25;68.28;100652.69;5060591;28;20074;-77
2023/09/30 10:41:11;;;;;;;6.18;0.80;;;;;;;16.25;67.96;100644.78;5042817;28;20478;-78
2023/09/30 10:43:41;;;;;;;7.85;0.40;;;;;;;16.26;67.81;100646.50;5051718;28;20174;-77
2023/09/30 10:46:35;;;;;;;5.78;0.55;;;;;;;16.27;67.99;100645.56;5058118;28;20135;-77
2023/09/30 10:49:32;;;;;;;7.70;0.45;;;;;;;16.26;67.99;100640.38;5059858;28;20625;-77
2023/09/30 10:52:00;;;;;;;7.93;1.05;;;;;;;16.28;67.84;100644.66;5057064;28;20082;-77
2023/09/30 10:54:29;;;;;;;5.93;0.50;;;;;;;16.31;68.05;100648.94;5057668;28;20056;-77
2023/09/30 10:56:58;;;;;;;7.55;0.70;;;;;;;16.34;68.30;100636.47;5053553;28;20049;-77
2023/09/30 10:59:30;;;;;;;9.40;0.55;;;;;;;16.36;68.31;100629.34;5059242;28;20059;-78
2023/09/30 11:01:57;;;;;;;10.82;1.48;;;;;;;16.41;68.98;100622.06;5049821;28;20565;-78
2023/09/30 11:04:24;;;;;;;9.98;1.13;;;;;;;16.43;68.36;100624.66;5053112;28;20124;-78
2023/09/30 11:06:51;;;;;;;4.28;0.70;;;;;;;16.45;68.29;100629.84;5051149;28;20041;-77
2023/09/30 11:09:20;;;;;;;5.03;0.40;;;;;;;16.45;68.12;100645.66;5055222;28;20855;-77
2023/09/30 11:11:49;;;;;;;5.72;0.40;;;;;;;16.49;68.44;100647.25;5055996;28;20127;-79
2023/09/30 11:14:23;;;;;;;7.82;0.60;;;;;;;16.47;68.04;100657.84;5052518;28;20049;-78
2023/09/30 11:16:53;;;;;;;3.30;0.30;;;;;;;16.48;67.79;100666.59;5056078;28;20051;-77
2023/09/30 11:19:21;;;;;;;5.00;1.38;;;;;;;16.45;67.97;100672.91;5054575;28;20136;-79
2023/09/30 11:21:52;;;;;;;3.90;0.50;;;;;;;16.42;67.86;100660.72;5060050;28;20041;-78
2023/09/30 11:24:20;;;;;;;5.70;0.50;;;;;;;16.43;67.65;100666.84;5053862;28;20041;-78
2023/09/30 11:26:47;;;;;;;6.03;0.30;;;;;;;16.42;67.69;100676.53;5056929;28;20048;-78